createdAt,value
2019-02-16T00:01:42.685Z,7.03
2019-02-16T00:04:10.350Z,8.07
2019-02-16T00:06:38.006Z,7.40
2019-02-16T00:09:05.671Z,6.73
2019-02-16T00:11:33.325Z,7.27
2019-02-16T00:14:00.979Z,7.13
2019-02-16T00:16:28.714Z,6.60
2019-02-16T00:18:56.387Z,7.43
2019-02-16T00:21:24.042Z,7.13
2019-02-16T00:23:51.698Z,6.43
2019-02-16T00:26:19.364Z,6.90
2019-02-16T00:28:47.043Z,7.80
2019-02-16T00:31:14.758Z,7.23
2019-02-16T00:33:42.413Z,7.77
2019-02-16T00:36:10.073Z,7.37
2019-02-16T00:38:37.718Z,7.97
2019-02-16T00:41:05.383Z,6.83
2019-02-16T00:43:33.030Z,6.97
2019-02-16T00:46:00.685Z,6.87
2019-02-16T00:48:28.341Z,7.30
2019-02-16T00:50:56.002Z,7.23
2019-02-16T00:53:23.668Z,7.63
2019-02-16T00:55:51.326Z,7.57
2019-02-16T00:58:19.063Z,6.50
2019-02-16T01:00:46.717Z,7.23
2019-02-16T01:03:14.364Z,6.97
2019-02-16T01:05:42.024Z,7.57
2019-02-16T01:08:09.674Z,6.63
2019-02-16T01:10:37.337Z,6.40
2019-02-16T01:13:04.997Z,7.17
2019-02-16T01:15:32.648Z,6.87
2019-02-16T01:18:00.306Z,7.33
2019-02-16T01:20:27.966Z,7.07
2019-02-16T01:22:55.623Z,7.57
2019-02-16T01:25:23.279Z,7.73
2019-02-16T01:27:50.943Z,6.73
2019-02-16T01:30:18.605Z,6.90
2019-02-16T01:32:46.269Z,7.60
2019-02-16T01:35:13.927Z,7.67
2019-02-16T01:37:41.587Z,8.27
2019-02-16T01:40:09.237Z,7.90
2019-02-16T01:42:36.886Z,8.03
2019-02-16T01:45:04.551Z,9.50
2019-02-16T01:47:32.205Z,9.10
2019-02-16T01:49:59.868Z,8.30
2019-02-16T01:52:27.514Z,8.23
2019-02-16T01:54:55.171Z,8.00
2019-02-16T01:57:22.824Z,8.57
2019-02-16T01:59:50.601Z,8.57
2019-02-16T02:02:18.317Z,8.33
2019-02-16T02:04:45.996Z,8.60
2019-02-16T02:07:13.649Z,9.70
2019-02-16T02:09:41.300Z,8.20
2019-02-16T02:12:09.337Z,9.20
2019-02-16T02:14:36.994Z,7.80
2019-02-16T02:17:04.846Z,9.00
2019-02-16T02:19:32.578Z,8.43
2019-02-16T02:22:00.237Z,9.67
2019-02-16T02:24:27.886Z,9.53
2019-02-16T02:26:55.545Z,9.60
2019-02-16T02:29:23.209Z,8.67
2019-02-16T02:31:50.904Z,9.30
2019-02-16T02:34:18.560Z,9.53
2019-02-16T02:36:46.214Z,9.33
2019-02-16T02:39:13.866Z,9.50
2019-02-16T02:41:41.526Z,9.30
2019-02-16T02:44:09.182Z,8.83
2019-02-16T02:46:36.850Z,9.27
2019-02-16T02:49:04.508Z,10.33
2019-02-16T02:51:32.148Z,8.50
2019-02-16T02:53:59.819Z,9.93
2019-02-16T02:56:27.465Z,9.70
2019-02-16T02:58:55.118Z,10.43
2019-02-16T03:01:22.781Z,9.77
2019-02-16T03:03:50.434Z,9.37
2019-02-16T03:06:18.095Z,10.07
2019-02-16T03:08:45.757Z,9.77
2019-02-16T03:11:13.414Z,11.00
2019-02-16T03:13:41.070Z,10.70
2019-02-16T03:16:08.734Z,10.50
2019-02-16T03:18:36.391Z,10.00
2019-02-16T03:21:04.060Z,10.87
2019-02-16T03:23:31.730Z,10.47
2019-02-16T03:25:59.393Z,9.97
2019-02-16T03:28:27.049Z,10.50
2019-02-16T03:30:54.743Z,10.43
2019-02-16T03:33:22.395Z,10.43
2019-02-16T03:35:50.049Z,11.03
2019-02-16T03:38:17.706Z,10.60
2019-02-16T03:40:45.370Z,11.23
2019-02-16T03:43:13.033Z,10.47
2019-02-16T03:45:40.681Z,11.10
2019-02-16T03:48:08.341Z,11.60
2019-02-16T03:50:35.992Z,10.83
2019-02-16T03:53:03.658Z,11.70
2019-02-16T03:55:31.317Z,11.60
2019-02-16T03:57:58.990Z,11.43
2019-02-16T04:00:26.648Z,13.10
2019-02-16T04:02:54.313Z,10.83
2019-02-16T04:05:21.982Z,11.57
2019-02-16T04:07:49.642Z,11.27
2019-02-16T04:10:17.303Z,11.77
2019-02-16T04:12:44.963Z,11.27
2019-02-16T04:15:12.621Z,11.80
2019-02-16T04:17:40.339Z,11.70
2019-02-16T04:20:07.997Z,12.93
2019-02-16T04:22:35.658Z,11.97
2019-02-16T04:25:03.335Z,10.87
2019-02-16T04:27:31.070Z,11.83
2019-02-16T04:29:58.718Z,11.33
2019-02-16T04:32:26.383Z,11.17
2019-02-16T04:34:54.036Z,12.50
2019-02-16T04:37:21.731Z,11.97
2019-02-16T04:39:49.383Z,13.50
2019-02-16T04:42:17.050Z,12.30
2019-02-16T04:44:44.710Z,12.87
2019-02-16T04:47:12.368Z,11.87
2019-02-16T04:49:40.035Z,12.23
2019-02-16T04:52:07.695Z,12.43
2019-02-16T04:54:35.353Z,12.87
2019-02-16T04:57:03.019Z,12.47
2019-02-16T04:59:30.686Z,11.67
2019-02-16T05:01:58.344Z,12.67
2019-02-16T05:04:25.998Z,12.60
2019-02-16T05:06:53.663Z,13.53
2019-02-16T05:09:21.338Z,13.67
2019-02-16T05:11:48.990Z,12.93
2019-02-16T05:14:16.659Z,14.23
2019-02-16T05:16:44.315Z,14.93
2019-02-16T05:19:11.985Z,14.17
2019-02-16T05:21:39.637Z,14.37
2019-02-16T05:24:07.338Z,15.30
2019-02-16T05:26:35.006Z,15.23
2019-02-16T05:29:02.673Z,15.23
2019-02-16T05:31:30.329Z,14.03
2019-02-16T05:33:57.995Z,15.30
2019-02-16T05:36:25.654Z,14.63
2019-02-16T05:38:53.325Z,14.37
2019-02-16T05:41:20.988Z,15.03
2019-02-16T05:43:48.646Z,15.17
2019-02-16T05:46:16.309Z,15.07
2019-02-16T05:48:43.967Z,14.37
2019-02-16T05:51:11.650Z,15.27
2019-02-16T05:53:39.381Z,17.13
2019-02-16T05:56:07.054Z,17.40
2019-02-16T05:58:34.718Z,20.63
2019-02-16T06:01:02.379Z,18.13
2019-02-16T06:03:30.041Z,18.70
2019-02-16T06:05:57.710Z,18.93
2019-02-16T06:08:25.384Z,18.53
2019-02-16T06:10:53.050Z,15.50
2019-02-16T06:13:20.706Z,16.53
2019-02-16T06:15:48.372Z,17.80
2019-02-16T06:18:16.025Z,16.87
2019-02-16T06:20:43.697Z,17.63
2019-02-16T06:23:11.351Z,16.70
2019-02-16T06:25:39.031Z,17.30
2019-02-16T06:28:06.677Z,18.87
2019-02-16T06:30:34.341Z,18.17
2019-02-16T06:33:02.022Z,18.33
2019-02-16T06:35:38.132Z,18.37
2019-02-16T06:38:05.796Z,16.50
2019-02-16T06:40:33.461Z,17.37
2019-02-16T06:43:01.117Z,16.87
2019-02-16T06:45:28.786Z,18.00
2019-02-16T06:47:56.450Z,18.07
2019-02-16T06:50:24.114Z,17.97
2019-02-16T06:52:51.775Z,18.27
2019-02-16T06:55:19.436Z,17.83
2019-02-16T06:57:49.754Z,18.03
2019-02-16T07:00:19.785Z,17.83
2019-02-16T07:02:47.440Z,17.83
2019-02-16T07:05:15.108Z,18.37
2019-02-16T07:07:42.768Z,18.10
2019-02-16T07:10:10.422Z,19.43
2019-02-16T07:12:38.080Z,17.53
2019-02-16T07:15:05.768Z,18.93
2019-02-16T07:17:41.260Z,19.30
2019-02-16T07:20:09.374Z,18.60
2019-02-16T07:22:37.111Z,18.20
2019-02-16T07:25:04.767Z,17.63
2019-02-16T07:27:32.420Z,18.97
2019-02-16T07:30:00.186Z,19.70
2019-02-16T07:32:27.838Z,19.20
2019-02-16T07:34:55.492Z,18.50
2019-02-16T07:37:23.157Z,20.03
2019-02-16T07:39:50.816Z,19.93
2019-02-16T07:42:18.470Z,19.67
2019-02-16T07:44:54.354Z,19.40
2019-02-16T07:47:28.601Z,20.37
2019-02-16T07:50:04.048Z,20.50
2019-02-16T07:52:39.694Z,21.27
2019-02-16T07:55:13.405Z,20.03
2019-02-16T07:57:48.240Z,19.93
2019-02-16T08:00:21.829Z,19.60
2019-02-16T08:02:56.454Z,19.50
2019-02-16T08:05:29.316Z,21.17
2019-02-16T08:08:03.726Z,20.33
2019-02-16T08:10:38.593Z,18.53
2019-02-16T08:13:12.835Z,20.33
2019-02-16T08:15:53.419Z,19.23
2019-02-16T08:18:28.509Z,21.53
2019-02-16T08:21:03.775Z,21.57
2019-02-16T08:23:51.445Z,19.73
2019-02-16T08:26:30.735Z,21.13
2019-02-16T08:29:05.440Z,19.83
2019-02-16T08:31:39.766Z,20.33
2019-02-16T08:34:16.241Z,20.23
2019-02-16T08:36:50.658Z,19.63
2019-02-16T08:39:24.762Z,20.60
2019-02-16T08:42:06.166Z,20.60
2019-02-16T08:44:43.548Z,21.17
2019-02-16T08:47:21.448Z,20.23
2019-02-16T08:49:59.752Z,20.50
2019-02-16T08:52:51.434Z,20.70
2019-02-16T08:55:31.849Z,19.10
2019-02-16T08:58:19.501Z,20.50
2019-02-16T09:00:57.072Z,21.20
2019-02-16T09:03:34.359Z,21.43
2019-02-16T09:06:07.368Z,20.87
2019-02-16T09:08:50.643Z,21.07
2019-02-16T09:11:30.218Z,20.10
2019-02-16T09:14:03.295Z,20.53
2019-02-16T09:16:38.390Z,22.40
2019-02-16T09:19:19.722Z,20.80
2019-02-16T09:21:55.281Z,21.30
2019-02-16T09:24:28.106Z,21.37
2019-02-16T09:27:10.737Z,19.73
2019-02-16T09:29:44.989Z,19.83
2019-02-16T09:32:20.938Z,21.07
2019-02-16T09:35:03.472Z,20.13
2019-02-16T09:37:37.708Z,20.60
2019-02-16T09:40:16.718Z,19.80
2019-02-16T09:42:49.996Z,20.70
2019-02-16T09:45:26.163Z,19.67
2019-02-16T09:48:02.008Z,20.23
2019-02-16T09:50:34.179Z,19.97
2019-02-16T09:53:20.678Z,20.87
2019-02-16T09:55:57.985Z,19.00
2019-02-16T09:58:45.570Z,19.07
2019-02-16T10:01:28.520Z,18.83
2019-02-16T10:04:02.955Z,18.83
2019-02-16T10:06:42.489Z,18.50
2019-02-16T10:09:17.227Z,18.43
2019-02-16T10:11:51.120Z,18.13
2019-02-16T10:14:41.803Z,18.13
2019-02-16T10:17:17.685Z,16.70
2019-02-16T10:20:05.421Z,16.93
2019-02-16T10:22:45.877Z,16.43
2019-02-16T10:25:23.782Z,16.67
2019-02-16T10:28:01.782Z,17.47
2019-02-16T10:30:39.802Z,16.50
2019-02-16T10:33:18.309Z,17.10
2019-02-16T10:35:52.533Z,16.33
2019-02-16T10:38:28.063Z,18.00
2019-02-16T10:41:14.771Z,17.43
2019-02-16T10:43:49.292Z,16.63
2019-02-16T10:46:27.522Z,17.60
2019-02-16T10:49:03.871Z,17.20
2019-02-16T10:51:38.298Z,17.63
2019-02-16T10:54:13.740Z,17.57
2019-02-16T10:56:49.294Z,15.87
2019-02-16T10:59:22.996Z,15.90
2019-02-16T11:02:10.543Z,15.67
2019-02-16T11:04:43.473Z,15.30
2019-02-16T11:07:22.005Z,14.87
2019-02-16T11:09:54.481Z,15.53
2019-02-16T11:12:31.716Z,15.63
2019-02-16T11:15:09.095Z,15.03
2019-02-16T11:17:58.723Z,15.37
2019-02-16T11:20:34.622Z,15.50
2019-02-16T11:23:21.328Z,16.13
2019-02-16T11:26:02.869Z,15.80
2019-02-16T11:28:51.630Z,16.67
2019-02-16T11:31:26.697Z,14.73
2019-02-16T11:34:08.801Z,15.07
2019-02-16T11:36:47.430Z,14.80
2019-02-16T11:39:20.437Z,14.07
2019-02-16T11:41:59.252Z,14.83
2019-02-16T11:44:43.542Z,15.37
2019-02-16T11:47:21.456Z,13.30
2019-02-16T11:49:56.009Z,14.77
2019-02-16T11:52:37.014Z,13.93
2019-02-16T11:55:14.895Z,14.47
2019-02-16T11:58:05.602Z,13.80
2019-02-16T12:00:52.374Z,12.83
2019-02-16T12:03:29.699Z,13.73
2019-02-16T12:06:05.763Z,14.23
2019-02-16T12:08:50.110Z,13.60
2019-02-16T12:11:32.262Z,13.17
2019-02-16T12:14:05.169Z,13.07
2019-02-16T12:16:39.980Z,11.13
2019-02-16T12:19:13.099Z,11.07
2019-02-16T12:21:50.712Z,11.63
2019-02-16T12:24:37.435Z,10.93
2019-02-16T12:27:16.560Z,12.17
2019-02-16T12:30:01.213Z,11.77
2019-02-16T12:32:34.142Z,10.80
2019-02-16T12:35:14.862Z,11.00
2019-02-16T12:38:01.574Z,10.87
2019-02-16T12:40:34.771Z,10.80
2019-02-16T12:43:15.560Z,10.00
2019-02-16T12:45:51.235Z,10.53
2019-02-16T12:48:22.554Z,11.03
2019-02-16T12:50:59.596Z,11.30
2019-02-16T12:53:35.475Z,10.83
2019-02-16T12:56:11.733Z,10.20
2019-02-16T12:58:58.450Z,10.73
2019-02-16T13:01:33.479Z,10.00
2019-02-16T13:04:12.509Z,10.07
2019-02-16T13:06:49.556Z,8.90
2019-02-16T13:09:23.647Z,9.17
2019-02-16T13:12:02.859Z,10.10
2019-02-16T13:14:41.293Z,10.20
2019-02-16T13:17:19.260Z,9.30
2019-02-16T13:19:52.327Z,9.70
2019-02-16T13:22:26.560Z,9.27
2019-02-16T13:25:03.550Z,9.63
2019-02-16T13:27:43.614Z,8.60
2019-02-16T13:30:18.325Z,8.20
2019-02-16T13:33:08.711Z,8.73
2019-02-16T13:35:47.714Z,9.17
2019-02-16T13:38:30.301Z,8.77
2019-02-16T13:41:04.063Z,8.37
2019-02-16T13:43:43.197Z,9.40
2019-02-16T13:46:17.727Z,8.63
2019-02-16T13:48:51.866Z,8.43
2019-02-16T13:51:25.550Z,9.60
2019-02-16T13:54:02.835Z,7.57
2019-02-16T13:56:43.513Z,7.63
2019-02-16T13:59:18.626Z,8.00
2019-02-16T14:01:54.592Z,8.07
2019-02-16T14:04:29.937Z,7.93
2019-02-16T14:07:03.730Z,7.57
2019-02-16T14:09:44.937Z,7.23
2019-02-16T14:12:24.144Z,7.90
2019-02-16T14:14:57.100Z,7.33
2019-02-16T14:17:31.766Z,7.57
2019-02-16T14:19:59.479Z,7.67
2019-02-16T14:22:27.204Z,7.53
2019-02-16T14:24:57.917Z,7.80
2019-02-16T14:27:25.595Z,7.30
2019-02-16T14:29:53.299Z,8.00
2019-02-16T14:32:21.046Z,7.63
2019-02-16T14:34:48.773Z,7.43
2019-02-16T14:37:28.805Z,7.37
2019-02-16T14:39:56.590Z,7.33
2019-02-16T14:42:24.250Z,7.33
2019-02-16T14:44:51.920Z,7.80
2019-02-16T14:47:19.573Z,7.03
2019-02-16T14:49:47.245Z,7.43
2019-02-16T14:52:14.914Z,7.57
2019-02-16T14:54:42.584Z,7.93
2019-02-16T14:57:10.262Z,7.87
2019-02-16T14:59:37.945Z,8.20
2019-02-16T15:02:05.622Z,8.33
2019-02-16T15:04:33.282Z,7.67
2019-02-16T15:07:00.958Z,7.77
2019-02-16T15:09:28.646Z,7.60
2019-02-16T15:11:56.373Z,7.50
2019-02-16T15:14:24.117Z,7.80
2019-02-16T15:16:51.795Z,7.83
2019-02-16T15:19:19.461Z,8.57
2019-02-16T15:21:47.142Z,7.70
2019-02-16T15:24:14.810Z,7.43
2019-02-16T15:26:42.488Z,7.07
2019-02-16T15:29:10.171Z,7.80
2019-02-16T15:31:37.830Z,7.63
2019-02-16T15:34:05.498Z,7.73
2019-02-16T15:36:33.266Z,8.17
2019-02-16T15:39:00.941Z,7.20
2019-02-16T15:41:28.626Z,6.90
2019-02-16T15:43:56.295Z,7.70
2019-02-16T15:46:23.964Z,7.93
2019-02-16T15:48:51.632Z,8.20
2019-02-16T15:51:19.397Z,8.17
2019-02-16T15:53:47.058Z,8.33
2019-02-16T15:56:14.735Z,7.83
2019-02-16T15:58:42.437Z,8.30
2019-02-16T16:01:10.202Z,7.47
2019-02-16T16:03:37.929Z,7.40
2019-02-16T16:06:05.587Z,6.97
2019-02-16T16:08:38.666Z,6.67
2019-02-16T16:11:10.662Z,7.20
2019-02-16T16:13:50.306Z,7.50
2019-02-16T16:16:33.321Z,7.10
2019-02-16T16:19:09.895Z,7.30
2019-02-16T16:21:46.263Z,7.77
2019-02-16T16:24:23.644Z,8.27
2019-02-16T16:27:16.331Z,8.40
2019-02-16T16:29:49.066Z,9.67
2019-02-16T16:32:27.816Z,8.93
2019-02-16T16:35:03.153Z,8.27
2019-02-16T16:37:39.309Z,8.87
2019-02-16T16:40:18.131Z,8.50
2019-02-16T16:42:52.550Z,7.97
2019-02-16T16:45:34.470Z,9.87
2019-02-16T16:48:13.278Z,9.23
2019-02-16T16:50:54.446Z,8.33
2019-02-16T16:53:33.076Z,8.77
2019-02-16T16:56:28.175Z,9.37
2019-02-16T16:58:56.155Z,8.57
2019-02-16T17:01:31.695Z,8.60
2019-02-16T17:04:04.523Z,9.53
2019-02-16T17:06:40.334Z,8.27
2019-02-16T17:09:13.731Z,9.40
2019-02-16T17:11:55.843Z,9.77
2019-02-16T17:14:36.904Z,9.30
2019-02-16T17:17:13.542Z,9.53
2019-02-16T17:19:47.906Z,9.70
2019-02-16T17:22:20.750Z,9.70
2019-02-16T17:24:53.665Z,10.03
2019-02-16T17:27:29.934Z,9.93
2019-02-16T17:30:05.070Z,10.57
2019-02-16T17:32:39.889Z,10.10
2019-02-16T17:35:17.498Z,10.70
2019-02-16T17:37:50.981Z,9.97
2019-02-16T17:40:26.237Z,10.60
2019-02-16T17:42:59.211Z,10.20
2019-02-16T17:45:35.501Z,11.27
2019-02-16T17:48:16.044Z,11.00
2019-02-16T17:50:55.518Z,10.80
2019-02-16T17:53:37.739Z,10.97
2019-02-16T17:56:12.009Z,12.07
2019-02-16T17:58:49.469Z,12.43
2019-02-16T18:01:22.478Z,12.30
2019-02-16T18:03:55.448Z,12.50
2019-02-16T18:06:33.069Z,11.80
2019-02-16T18:09:12.224Z,12.53
2019-02-16T18:11:59.921Z,12.20
2019-02-16T18:14:36.614Z,12.27
2019-02-16T18:17:13.997Z,12.37
2019-02-16T18:19:48.000Z,12.87
2019-02-16T18:22:37.594Z,12.87
2019-02-16T18:25:28.141Z,11.23
2019-02-16T18:28:01.003Z,12.37
2019-02-16T18:30:38.273Z,12.83
2019-02-16T18:33:20.944Z,12.80
2019-02-16T18:36:02.376Z,13.23
2019-02-16T18:38:43.762Z,12.13
2019-02-16T18:41:25.916Z,13.53
2019-02-16T18:44:07.741Z,12.97
2019-02-16T18:46:54.443Z,13.60
2019-02-16T18:49:27.469Z,12.50
2019-02-16T18:52:03.201Z,13.00
2019-02-16T18:54:36.306Z,12.50
2019-02-16T18:57:09.291Z,13.70
2019-02-16T18:59:44.229Z,13.03
2019-02-16T19:02:25.488Z,14.20
2019-02-16T19:04:58.586Z,13.07
2019-02-16T19:07:36.679Z,13.93
2019-02-16T19:10:10.690Z,13.30
2019-02-16T19:12:43.620Z,14.23
2019-02-16T19:15:18.329Z,14.63
2019-02-16T19:17:53.103Z,14.73
2019-02-16T19:20:40.004Z,15.70
2019-02-16T19:23:17.324Z,13.93
2019-02-16T19:26:06.956Z,15.33
2019-02-16T19:28:47.377Z,15.40
2019-02-16T19:31:34.077Z,15.33
2019-02-16T19:34:10.559Z,16.57
2019-02-16T19:36:59.262Z,17.87
2019-02-16T19:39:34.048Z,17.67
2019-02-16T19:42:09.591Z,18.60
2019-02-16T19:44:51.294Z,18.20
2019-02-16T19:47:24.050Z,17.87
2019-02-16T19:49:59.201Z,16.93
2019-02-16T19:52:34.550Z,16.07
2019-02-16T19:55:12.346Z,15.63
2019-02-16T19:57:53.518Z,16.50
2019-02-16T20:00:41.116Z,14.80
2019-02-16T20:03:14.126Z,15.30
2019-02-16T20:05:57.781Z,16.43
2019-02-16T20:08:33.629Z,16.27
2019-02-16T20:11:06.684Z,15.67
2019-02-16T20:13:43.802Z,16.23
2019-02-16T20:16:20.587Z,15.50
2019-02-16T20:19:00.118Z,16.60
2019-02-16T20:21:37.413Z,16.87
2019-02-16T20:24:14.391Z,17.47
2019-02-16T20:26:54.648Z,17.67
2019-02-16T20:29:27.948Z,18.33
2019-02-16T20:32:05.541Z,19.97
2019-02-16T20:34:40.983Z,16.87
2019-02-16T20:37:16.018Z,18.17
2019-02-16T20:39:50.847Z,17.73
2019-02-16T20:42:24.865Z,17.77
2019-02-16T20:45:04.114Z,17.37
2019-02-16T20:47:39.954Z,18.87
2019-02-16T20:50:16.626Z,19.70
2019-02-16T20:53:05.266Z,18.97
2019-02-16T20:55:46.978Z,18.13
2019-02-16T20:58:23.333Z,18.53
2019-02-16T21:00:56.797Z,18.23
2019-02-16T21:03:29.600Z,18.23
2019-02-16T21:06:04.755Z,17.30
2019-02-16T21:08:43.169Z,18.30
2019-02-16T21:11:18.815Z,18.23
2019-02-16T21:13:51.799Z,19.57
2019-02-16T21:16:30.117Z,20.83
2019-02-16T21:19:07.207Z,19.77
2019-02-16T21:21:48.885Z,19.83
2019-02-16T21:24:31.920Z,20.17
2019-02-16T21:27:06.435Z,19.13
2019-02-16T21:29:53.149Z,18.57
2019-02-16T21:32:39.181Z,18.63
2019-02-16T21:35:14.998Z,19.03
2019-02-16T21:37:54.029Z,18.90
2019-02-16T21:40:43.702Z,16.80
2019-02-16T21:43:24.387Z,18.23
2019-02-16T21:46:02.692Z,19.30
2019-02-16T21:48:39.055Z,19.60
2019-02-16T21:51:17.360Z,19.37
2019-02-16T21:53:55.265Z,18.70
2019-02-16T21:56:29.784Z,18.23
2019-02-16T21:59:02.656Z,19.30
2019-02-16T22:01:35.965Z,20.27
2019-02-16T22:04:23.767Z,18.40
2019-02-16T22:07:02.222Z,18.83
2019-02-16T22:09:35.291Z,19.20
2019-02-16T22:12:13.621Z,18.67
2019-02-16T22:14:41.279Z,19.70
2019-02-16T22:17:08.943Z,19.27
2019-02-16T22:19:36.602Z,20.13
2019-02-16T22:22:04.288Z,19.40
2019-02-16T22:24:31.936Z,21.97
2019-02-16T22:26:59.591Z,20.23
2019-02-16T22:29:27.430Z,21.03
2019-02-16T22:31:55.090Z,21.07
2019-02-16T22:34:22.749Z,21.53
2019-02-16T22:36:50.410Z,20.17
2019-02-16T22:39:18.075Z,20.30
2019-02-16T22:41:45.731Z,20.67
2019-02-16T22:44:13.393Z,22.00
2019-02-16T22:46:41.134Z,21.57
2019-02-16T22:49:08.895Z,21.77
2019-02-16T22:51:36.570Z,23.67
2019-02-16T22:54:04.245Z,21.30
2019-02-16T22:56:31.898Z,22.23
2019-02-16T22:58:59.558Z,20.63
2019-02-16T23:01:27.504Z,20.33
2019-02-16T23:03:55.176Z,21.87
2019-02-16T23:06:22.846Z,22.90
2019-02-16T23:08:50.505Z,22.70
2019-02-16T23:11:18.169Z,22.63
2019-02-16T23:13:45.833Z,22.10
2019-02-16T23:16:13.494Z,23.23
2019-02-16T23:18:41.156Z,22.80
2019-02-16T23:21:08.823Z,22.87
2019-02-16T23:23:36.494Z,25.53
2019-02-16T23:26:04.170Z,25.77
2019-02-16T23:28:38.650Z,27.43
2019-02-16T23:31:01.245Z,28.20
2019-02-16T23:33:28.906Z,23.83
2019-02-16T23:35:56.564Z,21.20
2019-02-16T23:38:24.236Z,21.73
2019-02-16T23:40:51.897Z,24.90
2019-02-16T23:43:19.554Z,25.07
2019-02-16T23:45:47.226Z,24.53
2019-02-16T23:48:14.877Z,24.13
2019-02-16T23:50:42.533Z,25.57
2019-02-16T23:53:10.195Z,25.23
2019-02-16T23:55:37.859Z,25.67
2019-02-16T23:58:05.531Z,28.67
